East Vestal, New York
Current Conditions -  °F | °C
As of 4:53 AM on Saturday 29 Nov 2014 (Local Time) from KBGM Reporting Station
Scattered Clouds Scattered Clouds  
Wind Chill: 16°   Ceiling: Unl
Heat Index: 22°   Visibility: 10mi
Dew Point:   Wind: 5mph
Humidity: 58%   Direction: 170°S
Pressure: 30.15"   Gusts: NA
Location:  42.0523°N, 75.9029°W
Report Text: KBGM 290953Z 17004KT 10SM SCT085 M06/M13 A3015 RMK AO2 SLP235 T10561128
Loading
Personal Weather Stations






























Interactive Weather Map New forecast layout! Learn more

10-Day Weather Forecast

Advertisements
Track Severe Weather on mobile